Time;durP1;ratioP1;P1;durP2;ratioP2;P2;SDS_P1;SDS_P2;PMS_P1;PMS_P2;Temp;Humidity;BMP_temperature;BMP_pressure;BME280_temperature;BME280_humidity;BME280_pressure;Samples;Min_cycle;Max_cycle;Signal;HPM_P1;HPM_P2
2022/09/29 00:00:25;;;;;;;7.60;6.70;;;;;;;;;;4994530;28;20220;-75
2022/09/29 00:02:53;;;;;;;6.97;6.27;;;;;;;;;;4993366;28;20286;-74
2022/09/29 00:05:21;;;;;;;7.57;6.97;;;;;;;;;;5011351;28;20307;-74
2022/09/29 00:07:47;;;;;;;7.80;6.63;;;;;;;;;;4993039;28;20233;-73
2022/09/29 00:10:14;;;;;;;7.93;7.13;;;;;;;;;;4990736;28;20225;-75
2022/09/29 00:12:40;;;;;;;7.43;6.83;;;;;;;;;;4980398;28;20599;-74
2022/09/29 00:15:10;;;;;;;7.33;6.73;;;;;;;;;;5007663;28;20213;-75
2022/09/29 00:17:38;;;;;;;8.07;6.97;;;;;;;;;;4977285;28;20221;-75
2022/09/29 00:20:07;;;;;;;6.87;6.17;;;;;;;;;;4975876;28;20224;-76
2022/09/29 00:22:33;;;;;;;7.20;6.50;;;;;;;;;;4961166;28;20235;-75
2022/09/29 00:25:01;;;;;;;8.63;7.07;;;;;;;;;;4993269;28;20232;-74
2022/09/29 00:27:29;;;;;;;8.43;6.40;;;;;;;;;;4975902;28;20367;-75
2022/09/29 00:29:56;;;;;;;6.30;5.63;;;;;;;;;;5009112;28;20823;-74
2022/09/29 00:32:22;;;;;;;6.33;5.70;;;;;;;;;;5008411;28;20429;-73
2022/09/29 00:34:49;;;;;;;5.83;5.33;;;;;;;;;;5008341;28;20228;-74
2022/09/29 00:37:18;;;;;;;6.40;5.87;;;;;;;;;;4998926;28;20221;-74
2022/09/29 00:39:43;;;;;;;6.53;6.03;;;;;;;;;;5002253;28;20255;-74
2022/09/29 00:42:12;;;;;;;5.77;5.37;;;;;;;;;;4988054;28;20224;-75
2022/09/29 00:45:05;;;;;;;6.03;5.50;;;;;;;;;;4963242;28;20235;-74
2022/09/29 00:47:31;;;;;;;5.40;5.00;;;;;;;;;;5007407;28;20873;-75
2022/09/29 00:50:00;;;;;;;6.17;5.67;;;;;;;;;;4999031;28;20274;-74
2022/09/29 00:52:35;;;;;;;6.13;5.60;;;;;;;;;;5011363;28;20351;-73
2022/09/29 00:55:08;;;;;;;5.70;5.13;;;;;;;;;;4979030;28;20282;-73
2022/09/29 00:57:38;;;;;;;6.97;6.03;;;;;;;;;;4992352;28;20221;-73
2022/09/29 01:00:07;;;;;;;6.67;5.63;;;;;;;;;;4978542;28;21149;-75
2022/09/29 01:02:34;;;;;;;6.03;5.43;;;;;;;;;;4964466;28;20290;-73
2022/09/29 01:04:59;;;;;;;5.87;5.20;;;;;;;;;;4980564;28;20239;-73
2022/09/29 01:07:24;;;;;;;6.33;5.53;;;;;;;;;;4976495;28;20224;-73
2022/09/29 01:09:52;;;;;;;6.60;6.00;;;;;;;;;;4982824;28;20232;-74
2022/09/29 01:12:18;;;;;;;6.57;5.97;;;;;;;;;;4980962;28;20243;-73
2022/09/29 01:14:48;;;;;;;6.23;5.63;;;;;;;;;;4987332;28;20313;-74
2022/09/29 01:17:15;;;;;;;7.27;6.67;;;;;;;;;;4962634;28;20233;-74
2022/09/29 01:20:13;;;;;;;6.70;6.00;;;;;;;;;;4964206;28;20229;-75
2022/09/29 01:23:02;;;;;;;10.30;5.87;;;;;;;;;;4979898;28;20281;-73
2022/09/29 01:25:42;;;;;;;6.17;5.67;;;;;;;;;;4995557;28;20232;-75
2022/09/29 01:28:43;;;;;;;7.17;6.17;;;;;;;;;;5012337;28;20768;-75
2022/09/29 01:31:29;;;;;;;6.73;6.13;;;;;;;;;;4947579;28;20815;-72
2022/09/29 01:34:27;;;;;;;6.50;5.90;;;;;;;;;;4976903;28;20221;-74
2022/09/29 01:37:03;;;;;;;6.80;6.00;;;;;;;;;;4980103;28;20263;-74
2022/09/29 01:39:36;;;;;;;7.90;6.23;;;;;;;;;;4995359;28;20227;-75
2022/09/29 01:42:06;;;;;;;7.20;6.17;;;;;;;;;;4990065;28;20659;-74
2022/09/29 01:44:32;;;;;;;7.03;5.73;;;;;;;;;;5012557;28;20232;-74
2022/09/29 01:47:26;;;;;;;6.37;5.97;;;;;;;;;;4997695;28;20315;-75
2022/09/29 01:50:03;;;;;;;6.70;6.10;;;;;;;;;;4981968;28;20259;-74
2022/09/29 01:52:35;;;;;;;6.63;6.03;;;;;;;;;;4980966;28;20312;-75
2022/09/29 01:55:09;;;;;;;6.37;5.87;;;;;;;;;;4993516;28;20605;-74
2022/09/29 01:57:45;;;;;;;6.53;6.03;;;;;;;;;;5008414;28;20233;-76
2022/09/29 02:00:14;;;;;;;5.80;5.30;;;;;;;;;;4980308;28;20589;-74
2022/09/29 02:02:43;;;;;;;7.00;6.07;;;;;;;;;;4997897;28;20233;-75
2022/09/29 02:05:15;;;;;;;6.20;5.60;;;;;;;;;;5009226;28;20229;-75
2022/09/29 02:07:44;;;;;;;8.37;6.63;;;;;;;;;;4959965;28;20275;-74
2022/09/29 02:10:20;;;;;;;6.20;5.70;;;;;;;;;;4978646;28;20266;-74
2022/09/29 02:12:45;;;;;;;6.07;5.50;;;;;;;;;;4986966;28;20224;-73
2022/09/29 02:15:20;;;;;;;6.27;5.77;;;;;;;;;;4961095;28;20232;-74
2022/09/29 02:17:48;;;;;;;6.73;6.13;;;;;;;;;;4972605;28;20391;-73
2022/09/29 02:20:14;;;;;;;6.10;5.43;;;;;;;;;;4978680;28;20303;-73
2022/09/29 02:22:39;;;;;;;6.47;5.90;;;;;;;;;;4986196;28;20225;-74
2022/09/29 02:25:07;;;;;;;5.73;5.33;;;;;;;;;;4996569;28;20221;-73
2022/09/29 02:27:34;;;;;;;6.73;5.93;;;;;;;;;;4994824;28;20594;-74
2022/09/29 02:30:05;;;;;;;6.30;5.77;;;;;;;;;;4992915;28;20232;-74
2022/09/29 02:32:34;;;;;;;6.67;6.13;;;;;;;;;;4992969;28;20220;-73
2022/09/29 02:35:02;;;;;;;6.30;5.77;;;;;;;;;;4978404;28;20212;-74
2022/09/29 02:37:39;;;;;;;6.97;5.90;;;;;;;;;;4962437;28;20244;-73
2022/09/29 02:40:26;;;;;;;6.37;5.87;;;;;;;;;;5009454;28;20220;-73
2022/09/29 02:43:00;;;;;;;6.43;5.90;;;;;;;;;;4984135;28;20315;-73
2022/09/29 02:45:54;;;;;;;5.80;5.20;;;;;;;;;;5001312;28;20355;-74
2022/09/29 02:48:40;;;;;;;6.33;5.80;;;;;;;;;;5002321;28;20601;-74
2022/09/29 02:51:25;;;;;;;5.67;5.17;;;;;;;;;;5011185;28;20222;-74
2022/09/29 02:54:24;;;;;;;5.67;5.13;;;;;;;;;;5011173;28;20231;-74
2022/09/29 02:57:01;;;;;;;6.77;5.83;;;;;;;;;;4975220;28;20347;-74
2022/09/29 03:00:07;;;;;;;6.67;6.07;;;;;;;;;;4983139;28;20224;-75
2022/09/29 03:02:32;;;;;;;6.10;5.63;;;;;;;;;;4994565;28;20287;-73
2022/09/29 03:04:58;;;;;;;6.20;5.33;;;;;;;;;;4958028;28;20240;-74
2022/09/29 03:07:23;;;;;;;5.53;5.03;;;;;;;;;;4994020;28;20225;-74
2022/09/29 03:09:49;;;;;;;5.80;4.70;;;;;;;;;;4978901;28;20243;-74
2022/09/29 03:12:19;;;;;;;4.90;4.57;;;;;;;;;;4975121;28;20217;-75
2022/09/29 03:14:47;;;;;;;5.40;4.90;;;;;;;;;;4991894;28;20273;-75
2022/09/29 03:17:14;;;;;;;4.90;4.50;;;;;;;;;;5011769;28;20221;-75
2022/09/29 03:19:40;;;;;;;5.70;5.17;;;;;;;;;;4976528;28;20255;-74
2022/09/29 03:22:08;;;;;;;5.07;4.67;;;;;;;;;;4980121;28;20221;-74
2022/09/29 03:24:35;;;;;;;5.10;4.70;;;;;;;;;;4992746;28;20229;-73
2022/09/29 03:27:03;;;;;;;5.00;4.50;;;;;;;;;;4986435;28;20243;-75
2022/09/29 03:29:34;;;;;;;5.73;5.23;;;;;;;;;;5006785;28;20699;-73
2022/09/29 03:31:59;;;;;;;5.83;5.33;;;;;;;;;;4992936;28;20303;-74
2022/09/29 03:34:25;;;;;;;12.97;11.97;;;;;;;;;;4992700;28;20678;-75
2022/09/29 03:36:57;;;;;;;9.33;8.63;;;;;;;;;;4993587;28;20224;-73
2022/09/29 03:39:23;;;;;;;8.37;7.67;;;;;;;;;;5007948;28;20244;-74
2022/09/29 03:41:51;;;;;;;7.30;6.50;;;;;;;;;;4992970;28;20271;-75
2022/09/29 03:44:23;;;;;;;7.60;6.97;;;;;;;;;;4991507;28;20275;-73
2022/09/29 03:46:51;;;;;;;6.63;5.73;;;;;;;;;;4989993;28;20226;-76
2022/09/29 03:49:17;;;;;;;5.70;5.23;;;;;;;;;;5006774;28;20231;-75
2022/09/29 03:51:42;;;;;;;6.53;6.03;;;;;;;;;;4977971;28;20240;-76
2022/09/29 03:54:08;;;;;;;6.83;5.80;;;;;;;;;;4992593;28;20232;-73
2022/09/29 03:56:34;;;;;;;6.53;6.03;;;;;;;;;;4981379;28;20224;-75
2022/09/29 03:58:59;;;;;;;6.60;6.10;;;;;;;;;;4975323;28;20601;-73
2022/09/29 04:01:29;;;;;;;7.30;5.40;;;;;;;;;;4977088;28;20224;-73
2022/09/29 04:03:57;;;;;;;6.50;5.70;;;;;;;;;;4961638;28;20242;-76
2022/09/29 04:06:23;;;;;;;4.67;4.37;;;;;;;;;;5002534;28;20228;-75
2022/09/29 04:08:53;;;;;;;5.57;5.07;;;;;;;;;;5009354;28;20232;-71
2022/09/29 04:11:19;;;;;;;5.10;4.70;;;;;;;;;;5008471;28;20277;-75
2022/09/29 04:13:44;;;;;;;5.90;5.30;;;;;;;;;;4994127;28;20315;-76
2022/09/29 04:16:10;;;;;;;6.40;5.17;;;;;;;;;;4989433;28;20210;-75
2022/09/29 04:18:38;;;;;;;7.00;6.13;;;;;;;;;;4977801;28;20221;-75
2022/09/29 04:21:12;;;;;;;8.50;6.53;;;;;;;;;;5010471;28;20224;-74
2022/09/29 04:23:42;;;;;;;11.93;7.03;;;;;;;;;;4990971;28;20225;-74
2022/09/29 04:26:08;;;;;;;9.73;6.37;;;;;;;;;;5012736;28;20232;-74
2022/09/29 04:28:38;;;;;;;6.37;5.23;;;;;;;;;;4997979;28;20232;-74
2022/09/29 04:31:06;;;;;;;5.40;4.90;;;;;;;;;;4994195;28;20714;-74
2022/09/29 04:33:31;;;;;;;7.67;5.13;;;;;;;;;;4976257;28;20641;-74
2022/09/29 04:36:00;;;;;;;5.73;5.33;;;;;;;;;;4991997;28;20228;-75
2022/09/29 04:38:28;;;;;;;5.33;4.93;;;;;;;;;;5007140;28;20216;-75
2022/09/29 04:40:54;;;;;;;6.00;5.40;;;;;;;;;;4992721;28;20287;-73
2022/09/29 04:43:24;;;;;;;5.97;5.47;;;;;;;;;;4982481;28;20248;-75
2022/09/29 04:45:50;;;;;;;9.50;5.70;;;;;;;;;;4978749;28;20220;-75
2022/09/29 04:48:17;;;;;;;7.67;6.10;;;;;;;;;;4963705;28;20224;-74
2022/09/29 04:50:45;;;;;;;6.83;6.13;;;;;;;;;;4975260;28;20231;-74
2022/09/29 04:53:18;;;;;;;6.30;5.70;;;;;;;;;;4978882;28;20224;-74
2022/09/29 04:55:46;;;;;;;7.07;6.13;;;;;;;;;;4977142;28;20262;-74
2022/09/29 04:58:11;;;;;;;9.57;7.40;;;;;;;;;;4977895;28;20596;-73
2022/09/29 05:00:39;;;;;;;11.80;8.40;;;;;;;;;;5002671;28;20209;-74
2022/09/29 05:03:07;;;;;;;7.90;7.10;;;;;;;;;;4988912;28;20299;-75
2022/09/29 05:05:32;;;;;;;11.70;8.43;;;;;;;;;;4995215;28;20224;-72
2022/09/29 05:08:03;;;;;;;11.80;8.90;;;;;;;;;;4975565;28;20270;-75
2022/09/29 05:10:31;;;;;;;9.00;8.10;;;;;;;;;;4974197;28;20899;-76
2022/09/29 05:12:56;;;;;;;10.30;8.40;;;;;;;;;;4988331;28;20232;-73
2022/09/29 05:15:24;;;;;;;12.00;9.13;;;;;;;;;;4976212;28;20232;-72
2022/09/29 05:17:50;;;;;;;8.43;7.73;;;;;;;;;;4976556;28;20256;-75
2022/09/29 05:20:17;;;;;;;9.83;7.60;;;;;;;;;;5010106;28;20224;-75
2022/09/29 05:22:43;;;;;;;12.50;8.00;;;;;;;;;;4999734;28;20251;-75
2022/09/29 05:25:11;;;;;;;10.80;8.20;;;;;;;;;;5014435;28;20787;-75
2022/09/29 05:27:39;;;;;;;9.43;8.20;;;;;;;;;;4998055;28;20303;-74
2022/09/29 05:30:07;;;;;;;9.37;8.47;;;;;;;;;;4977324;28;20325;-75
2022/09/29 05:32:33;;;;;;;9.27;8.27;;;;;;;;;;4993404;28;20224;-76
2022/09/29 05:35:02;;;;;;;9.70;8.47;;;;;;;;;;4973556;28;20226;-75
2022/09/29 05:37:29;;;;;;;11.20;8.30;;;;;;;;;;4967601;28;20297;-75
2022/09/29 05:40:00;;;;;;;10.43;8.83;;;;;;;;;;4994146;28;20331;-75
2022/09/29 05:42:26;;;;;;;14.13;9.43;;;;;;;;;;4996773;28;20307;-74
2022/09/29 05:44:52;;;;;;;13.33;11.57;;;;;;;;;;4977775;28;20298;-74
2022/09/29 05:47:21;;;;;;;31.47;14.27;;;;;;;;;;4949592;28;20225;-73
2022/09/29 05:49:49;;;;;;;54.10;16.87;;;;;;;;;;4990699;28;20256;-74
2022/09/29 05:52:17;;;;;;;48.30;17.73;;;;;;;;;;4994359;28;20232;-75
2022/09/29 05:54:42;;;;;;;67.33;18.17;;;;;;;;;;4977806;28;20231;-74
2022/09/29 05:57:10;;;;;;;49.30;18.33;;;;;;;;;;4996347;28;20336;-75
2022/09/29 05:59:38;;;;;;;99.07;17.83;;;;;;;;;;4967395;28;20683;-74
2022/09/29 06:02:04;;;;;;;63.70;18.33;;;;;;;;;;4995057;28;20223;-75
2022/09/29 06:04:29;;;;;;;104.67;18.77;;;;;;;;;;5000052;28;20254;-75
2022/09/29 06:06:57;;;;;;;52.10;18.60;;;;;;;;;;4982334;28;20225;-74
2022/09/29 06:09:25;;;;;;;57.67;17.47;;;;;;;;;;4993756;28;20220;-76
2022/09/29 06:11:50;;;;;;;96.00;18.20;;;;;;;;;;4978983;28;20307;-73
2022/09/29 06:14:19;;;;;;;45.50;17.70;;;;;;;;;;5011228;28;20225;-75
2022/09/29 06:16:49;;;;;;;71.37;18.80;;;;;;;;;;4997414;28;20275;-75
2022/09/29 06:19:17;;;;;;;54.03;17.13;;;;;;;;;;4981340;28;20221;-73
2022/09/29 06:21:47;;;;;;;36.30;17.43;;;;;;;;;;5010897;28;20221;-75
2022/09/29 06:24:13;;;;;;;40.97;17.17;;;;;;;;;;5010534;28;20710;-75
2022/09/29 06:26:38;;;;;;;48.60;16.70;;;;;;;;;;4961332;28;20221;-73
2022/09/29 06:29:07;;;;;;;36.60;17.63;;;;;;;;;;4982632;28;20225;-74
2022/09/29 06:31:32;;;;;;;47.20;17.97;;;;;;;;;;4983761;28;20220;-74
2022/09/29 06:33:59;;;;;;;63.80;18.43;;;;;;;;;;4963186;28;20235;-74
2022/09/29 06:39:17;;;;;;;37.13;18.57;;;;;;;;;;5013090;28;20221;-72
2022/09/29 06:41:51;;;;;;;43.13;17.93;;;;;;;;;;4988850;28;20240;-75
2022/09/29 06:44:20;;;;;;;54.90;18.10;;;;;;;;;;4993973;28;20228;-75
2022/09/29 06:46:48;;;;;;;50.60;18.67;;;;;;;;;;4990770;28;20228;-73
2022/09/29 06:49:16;;;;;;;51.07;18.10;;;;;;;;;;4978602;28;20217;-75
2022/09/29 06:51:44;;;;;;;50.03;20.33;;;;;;;;;;4975841;28;20217;-75
2022/09/29 06:54:15;;;;;;;71.97;20.23;;;;;;;;;;5000513;28;20231;-75
2022/09/29 06:56:41;;;;;;;52.73;20.80;;;;;;;;;;4977509;28;20216;-76
2022/09/29 06:59:07;;;;;;;49.63;19.00;;;;;;;;;;4974514;28;20308;-73
2022/09/29 07:01:35;;;;;;;32.63;18.33;;;;;;;;;;4986463;28;20216;-74
2022/09/29 07:04:01;;;;;;;54.43;18.87;;;;;;;;;;5009370;28;20319;-74
2022/09/29 07:06:28;;;;;;;26.93;19.40;;;;;;;;;;5009600;28;20221;-73
2022/09/29 07:08:57;;;;;;;37.10;19.23;;;;;;;;;;4984006;28;20307;-74
2022/09/29 07:11:22;;;;;;;43.00;22.47;;;;;;;;;;4976486;28;21402;-74
2022/09/29 07:13:50;;;;;;;32.60;21.87;;;;;;;;;;4963590;28;20220;-74
2022/09/29 07:16:16;;;;;;;28.10;21.47;;;;;;;;;;5001271;28;20275;-78
2022/09/29 07:18:42;;;;;;;22.37;19.77;;;;;;;;;;4983468;28;20714;-73
2022/09/29 07:21:09;;;;;;;29.67;20.73;;;;;;;;;;4973660;28;20235;-73
2022/09/29 07:23:37;;;;;;;31.97;19.57;;;;;;;;;;4988939;28;20240;-75
2022/09/29 07:26:05;;;;;;;24.87;19.77;;;;;;;;;;4978970;28;20233;-73
2022/09/29 07:28:35;;;;;;;28.20;19.47;;;;;;;;;;4964785;28;20235;-73
2022/09/29 07:31:02;;;;;;;41.13;19.20;;;;;;;;;;4969665;28;20379;-73
2022/09/29 07:33:29;;;;;;;36.43;19.67;;;;;;;;;;4992162;28;20229;-72
2022/09/29 07:35:59;;;;;;;23.93;18.93;;;;;;;;;;4959449;28;20213;-73
2022/09/29 07:38:28;;;;;;;23.13;19.13;;;;;;;;;;4978595;28;20220;-74
2022/09/29 07:40:53;;;;;;;43.67;20.60;;;;;;;;;;4994660;28;20248;-74
2022/09/29 07:43:19;;;;;;;31.43;19.70;;;;;;;;;;4991536;28;20597;-74
2022/09/29 07:45:47;;;;;;;30.67;19.47;;;;;;;;;;4979241;28;20232;-73
2022/09/29 07:48:15;;;;;;;22.67;20.00;;;;;;;;;;4995742;28;20228;-73
2022/09/29 07:50:41;;;;;;;29.33;19.67;;;;;;;;;;5013819;28;20240;-73
2022/09/29 07:53:07;;;;;;;30.80;20.03;;;;;;;;;;4996739;28;20306;-73
2022/09/29 07:55:32;;;;;;;30.10;20.63;;;;;;;;;;4996505;28;20217;-72
2022/09/29 07:57:58;;;;;;;38.97;21.23;;;;;;;;;;4979830;28;20239;-72
2022/09/29 08:00:23;;;;;;;35.20;21.50;;;;;;;;;;4960881;28;20585;-73
2022/09/29 08:02:49;;;;;;;30.57;23.30;;;;;;;;;;4979333;28;20237;-74
2022/09/29 08:05:15;;;;;;;25.47;22.73;;;;;;;;;;4996491;28;20229;-74
2022/09/29 08:07:40;;;;;;;33.23;23.33;;;;;;;;;;4997337;28;20773;-72
2022/09/29 08:10:06;;;;;;;30.13;22.90;;;;;;;;;;4981665;28;20271;-73
2022/09/29 08:12:32;;;;;;;25.13;22.43;;;;;;;;;;4959627;28;20240;-73
2022/09/29 08:14:57;;;;;;;33.20;24.30;;;;;;;;;;4977602;28;20227;-73
2022/09/29 08:17:25;;;;;;;33.40;22.63;;;;;;;;;;5011140;28;20267;-74
2022/09/29 08:19:51;;;;;;;27.50;23.23;;;;;;;;;;4976224;28;20220;-72
2022/09/29 08:22:16;;;;;;;38.87;25.23;;;;;;;;;;4999325;28;20625;-72
2022/09/29 08:24:41;;;;;;;32.03;23.93;;;;;;;;;;5008873;28;20282;-72
2022/09/29 08:27:07;;;;;;;39.10;26.03;;;;;;;;;;4981820;28;20227;-71
2022/09/29 08:29:35;;;;;;;34.60;24.30;;;;;;;;;;4998213;28;20225;-72
2022/09/29 08:32:01;;;;;;;27.43;24.70;;;;;;;;;;4978622;28;20721;-72
2022/09/29 08:34:31;;;;;;;30.17;25.60;;;;;;;;;;4984714;28;20225;-73
2022/09/29 08:36:56;;;;;;;27.07;24.23;;;;;;;;;;5007722;28;20275;-73
2022/09/29 08:39:24;;;;;;;27.90;24.97;;;;;;;;;;4977528;28;20220;-74
2022/09/29 08:41:53;;;;;;;27.27;24.77;;;;;;;;;;4977978;28;20228;-73
2022/09/29 08:44:23;;;;;;;27.90;25.27;;;;;;;;;;4994287;28;20753;-73
2022/09/29 08:46:55;;;;;;;28.83;25.43;;;;;;;;;;4982561;28;20260;-74
2022/09/29 08:49:36;;;;;;;26.93;24.27;;;;;;;;;;4955257;28;20288;-74
2022/09/29 08:52:09;;;;;;;29.90;25.47;;;;;;;;;;5007808;28;20240;-73
2022/09/29 08:54:41;;;;;;;27.90;25.13;;;;;;;;;;4960955;28;20263;-73
2022/09/29 08:57:15;;;;;;;28.07;25.53;;;;;;;;;;4995664;28;20220;-74
2022/09/29 08:59:50;;;;;;;28.53;25.67;;;;;;;;;;4991455;28;20244;-74
2022/09/29 09:02:28;;;;;;;28.93;26.33;;;;;;;;;;5015130;28;20224;-74
2022/09/29 09:05:16;;;;;;;29.77;26.97;;;;;;;;;;5010916;28;20228;-74
2022/09/29 09:08:18;;;;;;;29.50;26.67;;;;;;;;;;4998903;28;20228;-74
2022/09/29 09:11:04;;;;;;;30.23;27.23;;;;;;;;;;4974986;28;20256;-71
2022/09/29 09:13:33;;;;;;;29.37;26.57;;;;;;;;;;4981729;28;20225;-74
2022/09/29 09:16:48;;;;;;;29.53;26.80;;;;;;;;;;4996256;28;20287;-72
2022/09/29 09:19:54;;;;;;;30.67;27.83;;;;;;;;;;4898119;29;20272;-74
2022/09/29 09:22:31;;;;;;;30.80;27.97;;;;;;;;;;5011656;28;20212;-73
2022/09/29 09:25:06;;;;;;;30.80;27.60;;;;;;;;;;4986675;28;20232;-74
2022/09/29 09:27:38;;;;;;;30.27;27.37;;;;;;;;;;4966025;28;20274;-71
2022/09/29 09:30:15;;;;;;;30.27;27.23;;;;;;;;;;4991830;28;20669;-72
2022/09/29 09:32:55;;;;;;;30.40;27.40;;;;;;;;;;4962487;28;20239;-74
2022/09/29 09:35:40;;;;;;;27.90;25.40;;;;;;;;;;4976023;28;20232;-73
2022/09/29 09:38:14;;;;;;;28.27;25.60;;;;;;;;;;4999585;28;20224;-74
2022/09/29 09:40:44;;;;;;;28.87;26.30;;;;;;;;;;4982428;28;20707;-72
2022/09/29 09:43:12;;;;;;;27.20;24.80;;;;;;;;;;4976412;28;20225;-74
2022/09/29 09:45:54;;;;;;;26.87;24.30;;;;;;;;;;5010777;28;20230;-75
2022/09/29 09:48:30;;;;;;;26.40;24.10;;;;;;;;;;4978771;28;20230;-71
2022/09/29 09:51:12;;;;;;;24.03;21.73;;;;;;;;;;4973013;28;20311;-71
2022/09/29 09:53:39;;;;;;;23.27;21.10;;;;;;;;;;4967271;28;20626;-71
2022/09/29 09:56:46;;;;;;;24.70;22.47;;;;;;;;;;4964007;28;20282;-73
2022/09/29 09:59:56;;;;;;;25.50;23.10;;;;;;;;;;4978307;28;20224;-73
2022/09/29 10:02:24;;;;;;;24.37;22.10;;;;;;;;;;4966285;28;20826;-73
2022/09/29 10:04:51;;;;;;;23.93;21.63;;;;;;;;;;4982750;28;20321;-74
2022/09/29 10:07:18;;;;;;;24.47;22.13;;;;;;;;;;4978026;28;20311;-73
2022/09/29 10:09:45;;;;;;;25.07;22.87;;;;;;;;;;4961912;28;20236;-73
2022/09/29 10:12:18;;;;;;;23.93;21.83;;;;;;;;;;4997775;28;20371;-74
2022/09/29 10:14:48;;;;;;;24.67;22.33;;;;;;;;;;4981308;28;20293;-73
2022/09/29 10:17:14;;;;;;;23.63;21.33;;;;;;;;;;4961437;28;20217;-73
2022/09/29 10:19:53;;;;;;;23.60;21.50;;;;;;;;;;4963466;28;20274;-73
2022/09/29 10:22:19;;;;;;;24.67;22.37;;;;;;;;;;5009026;28;20698;-73
2022/09/29 10:24:47;;;;;;;23.37;21.27;;;;;;;;;;5003627;28;20237;-73
2022/09/29 10:27:20;;;;;;;23.93;21.50;;;;;;;;;;4977841;28;20267;-73
2022/09/29 10:29:49;;;;;;;22.83;20.70;;;;;;;;;;4995486;28;20623;-73
2022/09/29 10:32:37;;;;;;;24.03;21.83;;;;;;;;;;4977317;28;20955;-73
2022/09/29 10:35:14;;;;;;;23.63;21.47;;;;;;;;;;5005636;28;20224;-74
2022/09/29 10:37:46;;;;;;;23.37;21.23;;;;;;;;;;5010737;28;20228;-73
2022/09/29 10:40:17;;;;;;;23.63;21.53;;;;;;;;;;4993144;28;20217;-71
2022/09/29 10:42:45;;;;;;;25.03;22.73;;;;;;;;;;4986097;28;20256;-73
2022/09/29 10:45:20;;;;;;;23.57;21.27;;;;;;;;;;4988520;28;20669;-73
2022/09/29 10:47:57;;;;;;;22.00;20.00;;;;;;;;;;5000930;28;20232;-73
2022/09/29 10:51:01;;;;;;;22.30;20.23;;;;;;;;;;5004337;28;20228;-73
2022/09/29 10:53:37;;;;;;;22.47;20.57;;;;;;;;;;4977612;28;20735;-73
2022/09/29 10:56:35;;;;;;;23.93;21.70;;;;;;;;;;5010726;28;20228;-73
2022/09/29 10:59:01;;;;;;;22.17;20.17;;;;;;;;;;5008500;28;20227;-72
2022/09/29 11:01:30;;;;;;;22.70;20.67;;;;;;;;;;4993940;28;20256;-74
2022/09/29 11:04:03;;;;;;;23.43;21.23;;;;;;;;;;4966916;28;20225;-74
2022/09/29 11:06:35;;;;;;;23.70;21.30;;;;;;;;;;4996416;28;20251;-71
2022/09/29 11:09:05;;;;;;;22.43;20.40;;;;;;;;;;4990300;28;20240;-72
2022/09/29 11:11:34;;;;;;;23.27;21.17;;;;;;;;;;4994323;28;20216;-73
2022/09/29 11:13:59;;;;;;;21.97;19.60;;;;;;;;;;5005939;28;20286;-71
2022/09/29 11:16:32;;;;;;;21.70;19.60;;;;;;;;;;4978578;28;20220;-74
2022/09/29 11:19:06;;;;;;;20.03;18.13;;;;;;;;;;4981749;28;20275;-73
2022/09/29 11:21:41;;;;;;;19.57;17.87;;;;;;;;;;5008088;28;20296;-71
2022/09/29 11:24:15;;;;;;;18.50;16.90;;;;;;;;;;5006027;28;20232;-74
2022/09/29 11:27:09;;;;;;;17.57;16.07;;;;;;;;;;5009081;28;20223;-72
2022/09/29 11:30:04;;;;;;;17.47;15.90;;;;;;;;;;4979391;28;20300;-73
2022/09/29 11:33:03;;;;;;;17.70;16.10;;;;;;;;;;4993854;28;20721;-71
2022/09/29 11:35:53;;;;;;;17.83;16.13;;;;;;;;;;4971993;28;20609;-73
2022/09/29 11:38:28;;;;;;;16.40;15.00;;;;;;;;;;4987263;28;20224;-72
2022/09/29 11:41:05;;;;;;;16.37;14.87;;;;;;;;;;5010319;28;20824;-72
2022/09/29 11:43:46;;;;;;;15.10;13.80;;;;;;;;;;4994364;28;20323;-73
2022/09/29 11:46:26;;;;;;;16.03;14.70;;;;;;;;;;4977612;28;20618;-72
2022/09/29 11:49:03;;;;;;;16.60;14.90;;;;;;;;;;4983298;28;20252;-72
2022/09/29 11:52:04;;;;;;;14.77;13.43;;;;;;;;;;5009058;28;20235;-72
2022/09/29 11:55:00;;;;;;;14.50;13.33;;;;;;;;;;4976237;28;20293;-72
2022/09/29 11:57:44;;;;;;;14.30;13.07;;;;;;;;;;5010963;28;20286;-72
2022/09/29 12:00:20;;;;;;;11.17;10.37;;;;;;;;;;4999686;28;20230;-73
2022/09/29 12:03:11;;;;;;;13.00;11.80;;;;;;;;;;4945028;28;20255;-73
2022/09/29 12:06:15;;;;;;;11.43;8.30;;;;;;;;;;5007528;28;20221;-74
2022/09/29 12:08:56;;;;;;;10.67;9.70;;;;;;;;;;5010111;28;20227;-73
2022/09/29 12:11:53;;;;;;;9.60;8.80;;;;;;;;;;4973272;28;20227;-73
2022/09/29 12:14:33;;;;;;;9.23;8.43;;;;;;;;;;4970144;28;20229;-73
2022/09/29 12:17:01;;;;;;;8.50;7.80;;;;;;;;;;4996025;28;20220;-75
2022/09/29 12:19:27;;;;;;;8.43;7.73;;;;;;;;;;4993874;28;20703;-72
2022/09/29 12:21:57;;;;;;;7.32;6.72;;;;;;;;;;4999776;28;20304;-74
2022/09/29 12:24:35;;;;;;;9.40;8.05;;;;;;;;;;4994254;28;20233;-73
2022/09/29 12:27:07;;;;;;;9.73;8.90;;;;;;;;;;4991434;28;20229;-73
2022/09/29 12:29:38;;;;;;;9.73;8.87;;;;;;;;;;4993475;28;20595;-73
2022/09/29 12:32:14;;;;;;;8.90;8.10;;;;;;;;;;4995311;28;20279;-72
2022/09/29 12:34:55;;;;;;;9.57;8.77;;;;;;;;;;4984123;28;20231;-73
2022/09/29 12:37:45;;;;;;;8.87;8.03;;;;;;;;;;4981977;28;20228;-72
2022/09/29 12:40:18;;;;;;;7.57;6.97;;;;;;;;;;5008296;28;20737;-72
2022/09/29 12:43:14;;;;;;;7.40;6.80;;;;;;;;;;4979294;28;20219;-73
2022/09/29 12:45:47;;;;;;;7.07;6.40;;;;;;;;;;5013545;28;20221;-72
2022/09/29 12:48:33;;;;;;;7.73;7.03;;;;;;;;;;5013449;28;20209;-72
2022/09/29 12:50:58;;;;;;;5.57;5.03;;;;;;;;;;4979356;28;20224;-72
2022/09/29 12:53:42;;;;;;;4.53;4.10;;;;;;;;;;4998829;28;20233;-73
2022/09/29 12:56:20;;;;;;;5.67;4.23;;;;;;;;;;4974989;28;20231;-73
2022/09/29 12:58:52;;;;;;;5.63;4.10;;;;;;;;;;4978616;28;20249;-73
2022/09/29 13:01:27;;;;;;;6.67;6.17;;;;;;;;;;4996102;28;20672;-73
2022/09/29 13:04:11;;;;;;;4.50;4.10;;;;;;;;;;4984055;28;20228;-74
2022/09/29 13:06:59;;;;;;;2.93;2.77;;;;;;;;;;4998316;28;20310;-74
2022/09/29 13:09:39;;;;;;;3.23;2.93;;;;;;;;;;4995826;28;20225;-74
2022/09/29 13:12:05;;;;;;;3.20;2.90;;;;;;;;;;5004188;28;20299;-74
2022/09/29 13:14:52;;;;;;;2.80;2.60;;;;;;;;;;4994606;28;20307;-72
2022/09/29 13:17:20;;;;;;;3.37;3.07;;;;;;;;;;4962110;28;20236;-72
2022/09/29 13:19:56;;;;;;;3.17;2.93;;;;;;;;;;5008006;28;20267;-73
2022/09/29 13:22:40;;;;;;;2.57;2.37;;;;;;;;;;4994083;28;20252;-73
2022/09/29 13:25:34;;;;;;;2.80;2.60;;;;;;;;;;5011517;28;20321;-73
2022/09/29 13:27:59;;;;;;;2.83;2.63;;;;;;;;;;4991659;28;20286;-75
2022/09/29 13:30:29;;;;;;;2.97;2.60;;;;;;;;;;5013382;28;20224;-74
2022/09/29 13:33:08;;;;;;;2.40;2.20;;;;;;;;;;4960356;28;20307;-74
2022/09/29 13:35:44;;;;;;;2.30;2.13;;;;;;;;;;4949139;28;20236;-72
2022/09/29 13:38:20;;;;;;;2.08;1.98;;;;;;;;;;4985805;28;20873;-74
2022/09/29 13:41:14;;;;;;;2.85;2.55;;;;;;;;;;4982225;28;20600;-71
2022/09/29 13:43:42;;;;;;;3.70;3.40;;;;;;;;;;4995480;28;20233;-71
2022/09/29 13:46:28;;;;;;;5.33;2.60;;;;;;;;;;5011518;28;20603;-72
2022/09/29 13:49:15;;;;;;;4.03;2.95;;;;;;;;;;5012271;28;20727;-75
2022/09/29 13:51:49;;;;;;;3.30;2.67;;;;;;;;;;4991642;28;20228;-73
2022/09/29 13:54:26;;;;;;;2.85;2.22;;;;;;;;;;5011034;28;20911;-73
2022/09/29 13:57:04;;;;;;;2.75;2.30;;;;;;;;;;4978920;28;20224;-73
2022/09/29 13:59:30;;;;;;;3.00;2.50;;;;;;;;;;5011600;28;20213;-72
2022/09/29 14:01:56;;;;;;;2.20;2.00;;;;;;;;;;4965796;28;20713;-73
2022/09/29 14:04:40;;;;;;;3.33;2.00;;;;;;;;;;4962563;28;20245;-73
2022/09/29 14:07:05;;;;;;;2.50;2.30;;;;;;;;;;4995721;28;20247;-73
2022/09/29 14:09:36;;;;;;;2.33;2.10;;;;;;;;;;4983731;28;20221;-74
2022/09/29 14:12:06;;;;;;;5.60;1.93;;;;;;;;;;4976819;28;20225;-72
2022/09/29 14:14:36;;;;;;;2.33;2.13;;;;;;;;;;4995459;28;20282;-74
2022/09/29 14:17:03;;;;;;;1.87;1.77;;;;;;;;;;4981596;28;20228;-73
2022/09/29 14:19:34;;;;;;;2.25;2.08;;;;;;;;;;5009871;28;20231;-73
2022/09/29 14:22:01;;;;;;;2.60;2.40;;;;;;;;;;4996230;28;20806;-72
2022/09/29 14:24:33;;;;;;;3.43;1.70;;;;;;;;;;4996428;28;20233;-73
2022/09/29 14:27:29;;;;;;;2.83;1.80;;;;;;;;;;5007546;28;20233;-73
2022/09/29 14:30:15;;;;;;;2.17;1.97;;;;;;;;;;4979206;28;20220;-72
2022/09/29 14:33:20;;;;;;;2.63;1.93;;;;;;;;;;4995312;28;20224;-71
2022/09/29 14:35:57;;;;;;;1.93;1.80;;;;;;;;;;4995099;28;20228;-72
2022/09/29 14:38:29;;;;;;;2.07;1.97;;;;;;;;;;5004805;28;20232;-72
2022/09/29 14:41:06;;;;;;;2.33;2.13;;;;;;;;;;4997452;28;20229;-72
2022/09/29 14:43:40;;;;;;;2.87;2.40;;;;;;;;;;5011790;28;20278;-72
2022/09/29 14:52:26;;;;;;;1.95;1.83;;;;;;;;;;5009922;28;21558;-73
2022/09/29 14:55:15;;;;;;;3.23;1.80;;;;;;;;;;4993499;28;20233;-73
2022/09/29 14:58:17;;;;;;;2.13;1.93;;;;;;;;;;4979535;28;20611;-72
2022/09/29 15:01:15;;;;;;;3.10;1.90;;;;;;;;;;5009847;28;20278;-72
2022/09/29 15:03:40;;;;;;;2.77;2.13;;;;;;;;;;4957434;28;20237;-72
2022/09/29 15:06:12;;;;;;;2.63;2.43;;;;;;;;;;4980549;28;20238;-72
2022/09/29 15:08:38;;;;;;;1.90;1.50;;;;;;;;;;5009069;28;20221;-73
2022/09/29 15:11:23;;;;;;;1.80;1.70;;;;;;;;;;4964104;28;20220;-75
2022/09/29 15:13:48;;;;;;;1.07;1.07;;;;;;;;;;4991390;28;20253;-73